Карточка аэропорта UAKK

Внимание!
Информация на этой странице в стадии наполнения.
Если вы не увидели какой-то информации, или заметили неточность - пожалуйста сообщите нам!
Спасибо!
Команда RU-STAFF
Название аэропортаКараганда
Название аэропорта (англ.)Karaganda
Превышение1768 ft. (538.9 m.)
Координаты49°40.302', 73°20.118'
Высота перехода10000
Эшелон переходаby ATC
Коды ответчика0630-0637, 7220-7227
Зона ОрВДАстана РПИ (UACN)
Данные METARUAKK 041200Z 23007MPS CAVOK M09/M12 Q1025 NOSIG RMK QFE721/0962
Проноз погоды (TAF)UAKK 041102Z 0412/0512 23005MPS 9999 SCT040 BKN100 TXM05/0509Z TNM22/0501Z BECMG 0415/0417 VRB02MPS TEMPO 0415/0503 18005MPS 3100 -SN BR SCT011 BECMG 0503/0505 18007MPS TEMPO 0503/0512 5000 -SN BR SCT011
NOTAMshow/hide NOTAM
AWOS   TABLE

Информация о ВПП

ВПП Длина ВПП (м.) Покрытие Курс ВПП Частота ILS
053601Железобетон50109.9
233601Железобетон230111.7

Диспетчерские позиции




Спутниковое изображение